createdAt,value
2023-04-16T00:00:10.919Z,96.84
2023-04-16T00:01:10.960Z,97.05
2023-04-16T00:02:11.076Z,97.05
2023-04-16T00:03:11.298Z,97.15
2023-04-16T00:04:11.319Z,97.15
2023-04-16T00:05:11.302Z,97.25
2023-04-16T00:06:11.326Z,97.15
2023-04-16T00:07:11.415Z,97.15
2023-04-16T00:08:11.492Z,97.25
2023-04-16T00:09:11.737Z,97.36
2023-04-16T00:10:11.672Z,97.45
2023-04-16T00:11:11.747Z,97.36
2023-04-16T00:12:11.821Z,97.40
2023-04-16T00:13:11.901Z,97.40
2023-04-16T00:14:11.973Z,97.50
2023-04-16T00:15:12.106Z,97.50
2023-04-16T00:16:12.135Z,97.61
2023-04-16T00:17:12.468Z,97.50
2023-04-16T00:18:12.288Z,97.50
2023-04-16T00:19:12.358Z,97.40
2023-04-16T00:20:12.669Z,97.61
2023-04-16T00:21:12.513Z,97.61
2023-04-16T00:22:12.606Z,97.61
2023-04-16T00:23:12.675Z,97.61
2023-04-16T00:24:12.741Z,97.61
2023-04-16T00:25:12.856Z,97.50
2023-04-16T00:26:12.903Z,97.61
2023-04-16T00:27:12.978Z,97.71
2023-04-16T00:28:13.041Z,97.61
2023-04-16T00:29:13.115Z,97.61
2023-04-16T00:30:13.198Z,97.81
2023-04-16T00:31:13.307Z,97.71
2023-04-16T00:32:13.354Z,97.61
2023-04-16T00:33:13.433Z,97.61
2023-04-16T00:34:13.502Z,97.56
2023-04-16T00:35:13.605Z,97.50
2023-04-16T00:36:13.666Z,97.40
2023-04-16T00:37:13.741Z,97.40
2023-04-16T00:38:13.811Z,97.40
2023-04-16T00:39:13.906Z,97.30
2023-04-16T00:40:13.997Z,97.40
2023-04-16T00:41:14.054Z,97.50
2023-04-16T00:42:14.132Z,97.50
2023-04-16T00:43:14.210Z,97.50
2023-04-16T00:44:14.290Z,97.40
2023-04-16T00:45:14.396Z,97.40
2023-04-16T00:46:14.456Z,97.50
2023-04-16T00:47:14.547Z,97.50
2023-04-16T00:48:14.616Z,97.61
2023-04-16T00:49:14.702Z,97.61
2023-04-16T00:50:14.804Z,97.71
2023-04-16T00:51:14.854Z,97.71
2023-04-16T00:52:14.926Z,97.81
2023-04-16T00:53:15.011Z,97.81
2023-04-16T00:54:15.088Z,97.71
2023-04-16T00:55:15.202Z,97.61
2023-04-16T00:56:15.244Z,97.50
2023-04-16T00:57:15.308Z,97.50
2023-04-16T00:58:15.371Z,97.15
2023-04-16T00:59:15.446Z,96.84
2023-04-16T01:00:15.551Z,96.84
2023-04-16T01:01:15.635Z,96.73
2023-04-16T01:02:15.723Z,96.84
2023-04-16T01:03:15.973Z,96.84
2023-04-16T01:04:15.932Z,96.78
2023-04-16T01:05:15.951Z,96.89
2023-04-16T01:06:16.027Z,96.99
2023-04-16T01:07:16.126Z,96.89
2023-04-16T01:08:16.198Z,96.99
2023-04-16T01:09:16.272Z,97.19
2023-04-16T01:10:16.361Z,97.09
2023-04-16T01:11:16.420Z,96.89
2023-04-16T01:12:16.480Z,96.99
2023-04-16T01:13:16.560Z,96.89
2023-04-16T01:14:16.613Z,96.89
2023-04-16T01:15:16.712Z,96.89
2023-04-16T01:16:16.786Z,96.89
2023-04-16T01:17:16.862Z,96.99
2023-04-16T01:18:16.931Z,97.09
2023-04-16T01:19:16.991Z,96.99
2023-04-16T01:20:17.067Z,96.99
2023-04-16T01:21:17.148Z,97.09
2023-04-16T01:22:17.250Z,97.09
2023-04-16T01:23:17.346Z,97.19
2023-04-16T01:24:17.383Z,97.30
2023-04-16T01:25:17.487Z,97.30
2023-04-16T01:26:17.549Z,97.40
2023-04-16T01:27:17.630Z,97.30
2023-04-16T01:28:17.707Z,97.30
2023-04-16T01:29:17.780Z,97.30
2023-04-16T01:30:17.995Z,97.40
2023-04-16T01:31:17.961Z,97.40
2023-04-16T01:32:18.049Z,97.50
2023-04-16T01:33:18.136Z,97.50
2023-04-16T01:34:18.169Z,97.61
2023-04-16T01:35:18.303Z,97.71
2023-04-16T01:36:18.329Z,97.81
2023-04-16T01:37:18.402Z,97.91
2023-04-16T01:38:18.467Z,97.91
2023-04-16T01:39:18.552Z,97.91
2023-04-16T01:40:18.629Z,97.81
2023-04-16T01:41:18.720Z,97.81
2023-04-16T01:42:18.791Z,97.71
2023-04-16T01:43:18.863Z,97.61
2023-04-16T01:44:18.940Z,97.71
2023-04-16T01:45:19.020Z,97.81
2023-04-16T01:46:19.116Z,97.91
2023-04-16T01:47:19.203Z,98.02
2023-04-16T01:48:19.259Z,98.22
2023-04-16T01:49:19.345Z,98.12
2023-04-16T01:50:19.438Z,98.12
2023-04-16T01:51:19.540Z,97.91
2023-04-16T01:52:19.592Z,97.91
2023-04-16T01:53:19.692Z,97.91
2023-04-16T01:54:19.751Z,98.02
2023-04-16T01:55:19.835Z,97.91
2023-04-16T01:56:19.897Z,97.91
2023-04-16T01:57:19.979Z,98.02
2023-04-16T01:58:20.041Z,98.02
2023-04-16T01:59:20.124Z,97.91
2023-04-16T02:00:20.225Z,98.02
2023-04-16T02:01:20.360Z,98.12
2023-04-16T02:02:20.437Z,98.33
2023-04-16T02:03:20.540Z,98.43
2023-04-16T02:04:20.509Z,98.43
2023-04-16T02:05:20.607Z,98.53
2023-04-16T02:06:20.675Z,98.63
2023-04-16T02:07:20.745Z,98.63
2023-04-16T02:08:20.815Z,98.74
2023-04-16T02:09:20.890Z,98.74
2023-04-16T02:10:20.970Z,98.84
2023-04-16T02:11:21.048Z,98.74
2023-04-16T02:12:21.110Z,98.74
2023-04-16T02:13:21.186Z,98.84
2023-04-16T02:14:21.250Z,98.94
2023-04-16T02:15:21.348Z,98.94
2023-04-16T02:16:21.437Z,98.94
2023-04-16T02:17:21.535Z,98.84
2023-04-16T02:18:21.575Z,98.74
2023-04-16T02:19:21.650Z,98.74
2023-04-16T02:20:21.752Z,98.84
2023-04-16T02:21:21.828Z,98.74
2023-04-16T02:22:21.918Z,98.84
2023-04-16T02:23:21.990Z,98.84
2023-04-16T02:24:22.086Z,98.94
2023-04-16T02:25:22.201Z,99.05
2023-04-16T02:26:22.252Z,99.05
2023-04-16T02:27:22.358Z,98.94
2023-04-16T02:28:22.430Z,98.94
2023-04-16T02:29:22.505Z,98.84
2023-04-16T02:30:22.590Z,98.84
2023-04-16T02:31:22.734Z,98.94
2023-04-16T02:32:22.792Z,99.05
2023-04-16T02:33:22.841Z,98.94
2023-04-16T02:34:22.928Z,98.84
2023-04-16T02:35:23.018Z,98.94
2023-04-16T02:36:23.097Z,98.84
2023-04-16T02:37:23.185Z,98.74
2023-04-16T02:38:23.258Z,98.74
2023-04-16T02:39:23.348Z,98.74
2023-04-16T02:40:23.434Z,98.84
2023-04-16T02:41:23.513Z,99.05
2023-04-16T02:42:23.577Z,99.15
2023-04-16T02:43:23.651Z,99.15
2023-04-16T02:44:23.727Z,99.25
2023-04-16T02:45:23.839Z,99.15
2023-04-16T02:46:24.015Z,99.15
2023-04-16T02:47:24.039Z,99.25
2023-04-16T02:48:24.038Z,99.25
2023-04-16T02:49:24.130Z,99.35
2023-04-16T02:50:24.223Z,99.35
2023-04-16T02:51:24.284Z,99.35
2023-04-16T02:52:24.364Z,99.46
2023-04-16T02:53:24.439Z,99.46
2023-04-16T02:54:24.523Z,99.66
2023-04-16T02:55:24.614Z,99.56
2023-04-16T02:56:24.685Z,99.56
2023-04-16T02:57:24.744Z,99.35
2023-04-16T02:58:24.827Z,99.46
2023-04-16T02:59:24.898Z,99.25
2023-04-16T03:00:25.020Z,99.25
2023-04-16T03:01:25.083Z,99.35
2023-04-16T03:02:25.224Z,99.35
2023-04-16T03:03:25.257Z,99.46
2023-04-16T03:04:25.357Z,99.46
2023-04-16T03:05:25.446Z,99.46
2023-04-16T03:06:25.533Z,99.56
2023-04-16T03:07:25.624Z,99.56
2023-04-16T03:08:25.702Z,99.66
2023-04-16T03:09:25.778Z,99.56
2023-04-16T03:10:25.883Z,99.66
2023-04-16T03:11:25.934Z,99.66
2023-04-16T03:12:26.020Z,99.77
2023-04-16T03:13:26.099Z,99.77
2023-04-16T03:14:26.204Z,99.77
2023-04-16T03:15:26.327Z,99.77
2023-04-16T03:16:26.366Z,99.56
2023-04-16T03:17:26.514Z,99.66
2023-04-16T03:18:26.552Z,99.77
2023-04-16T03:19:26.616Z,99.77
2023-04-16T03:20:26.712Z,99.77
2023-04-16T03:21:26.770Z,99.77
2023-04-16T03:22:26.881Z,99.77
2023-04-16T03:23:26.941Z,99.77
2023-04-16T03:24:27.024Z,99.77
2023-04-16T03:25:27.145Z,99.87
2023-04-16T03:26:27.195Z,99.99
2023-04-16T03:27:27.277Z,99.87
2023-04-16T03:28:27.376Z,99.87
2023-04-16T03:29:27.464Z,99.97
2023-04-16T03:30:27.576Z,99.87
2023-04-16T03:31:27.692Z,99.99
2023-04-16T03:32:27.718Z,99.99
2023-04-16T03:33:27.800Z,99.99
2023-04-16T03:34:27.882Z,99.99
2023-04-16T03:35:27.987Z,99.99
2023-04-16T03:36:28.017Z,99.97
2023-04-16T03:37:28.106Z,99.97
2023-04-16T03:38:28.188Z,99.97
2023-04-16T03:39:28.278Z,99.99
2023-04-16T03:40:28.388Z,99.97
2023-04-16T03:41:28.454Z,99.99
2023-04-16T03:42:28.527Z,99.99
2023-04-16T03:43:28.638Z,99.99
2023-04-16T03:44:28.725Z,99.99
2023-04-16T03:45:28.846Z,99.99
2023-04-16T03:46:28.898Z,99.99
2023-04-16T03:47:28.977Z,99.99
2023-04-16T03:48:29.047Z,99.99
2023-04-16T03:49:29.156Z,99.99
2023-04-16T03:50:29.270Z,99.99
2023-04-16T03:51:29.312Z,99.99
2023-04-16T03:52:29.378Z,99.99
2023-04-16T03:53:29.470Z,99.99
2023-04-16T03:54:29.554Z,99.99
2023-04-16T03:55:29.662Z,99.99
2023-04-16T03:56:29.701Z,99.99
2023-04-16T03:57:29.780Z,99.99
2023-04-16T03:58:29.857Z,99.99
2023-04-16T03:59:29.938Z,99.99
2023-04-16T04:00:30.042Z,99.99
2023-04-16T04:01:30.129Z,99.99
2023-04-16T04:02:30.441Z,99.97
2023-04-16T04:03:30.561Z,99.87
2023-04-16T04:04:30.461Z,99.97
2023-04-16T04:05:30.442Z,99.87
2023-04-16T04:06:30.488Z,99.97
2023-04-16T04:07:30.580Z,99.99
2023-04-16T04:08:30.649Z,99.99
2023-04-16T04:09:30.738Z,99.97
2023-04-16T04:10:30.817Z,99.99
2023-04-16T04:11:30.894Z,99.99
2023-04-16T04:12:30.963Z,99.99
2023-04-16T04:13:31.078Z,99.99
2023-04-16T04:14:31.155Z,99.99
2023-04-16T04:15:31.254Z,99.99
2023-04-16T04:16:31.321Z,99.99
2023-04-16T04:17:31.432Z,99.99
2023-04-16T04:18:31.475Z,99.99
2023-04-16T04:19:31.561Z,99.99
2023-04-16T04:20:31.682Z,99.99
2023-04-16T04:21:31.748Z,99.99
2023-04-16T04:22:31.798Z,99.99
2023-04-16T04:23:31.888Z,99.99
2023-04-16T04:24:31.961Z,99.99
2023-04-16T04:25:32.083Z,99.99
2023-04-16T04:26:32.228Z,99.99
2023-04-16T04:27:32.238Z,99.99
2023-04-16T04:28:32.298Z,99.99
2023-04-16T04:29:32.374Z,99.99
2023-04-16T04:30:32.477Z,99.99
2023-04-16T04:31:32.574Z,99.99
2023-04-16T04:32:32.619Z,99.99
2023-04-16T04:33:32.681Z,99.99
2023-04-16T04:34:32.743Z,99.99
2023-04-16T04:35:32.848Z,99.99
2023-04-16T04:36:32.912Z,99.99
2023-04-16T04:37:32.996Z,99.99
2023-04-16T04:38:33.067Z,99.99
2023-04-16T04:39:33.149Z,99.99
2023-04-16T04:40:33.233Z,99.99
2023-04-16T04:41:33.301Z,99.99
2023-04-16T04:42:33.355Z,99.99
2023-04-16T04:43:33.458Z,99.99
2023-04-16T04:44:33.500Z,99.99
2023-04-16T04:45:33.640Z,99.99
2023-04-16T04:46:33.664Z,99.99
2023-04-16T04:47:33.753Z,99.99
2023-04-16T04:48:33.820Z,99.99
2023-04-16T04:49:33.908Z,99.99
2023-04-16T04:50:34.028Z,99.99
2023-04-16T04:51:34.047Z,99.99
2023-04-16T04:52:34.119Z,99.99
2023-04-16T04:53:34.206Z,99.99
2023-04-16T04:54:34.294Z,99.99
2023-04-16T04:55:34.406Z,99.99
2023-04-16T04:56:34.451Z,99.99
2023-04-16T04:57:34.531Z,99.99
2023-04-16T04:58:34.621Z,99.99
2023-04-16T04:59:34.675Z,99.99
2023-04-16T05:00:34.772Z,99.99
2023-04-16T05:01:34.946Z,99.99
2023-04-16T05:02:34.999Z,99.99
2023-04-16T05:03:35.045Z,99.99
2023-04-16T05:04:35.149Z,99.99
2023-04-16T05:05:35.182Z,99.97
2023-04-16T05:06:35.251Z,99.99
2023-04-16T05:07:35.338Z,99.99
2023-04-16T05:08:35.413Z,99.99
2023-04-16T05:09:35.506Z,99.99
2023-04-16T05:10:35.602Z,99.82
2023-04-16T05:11:35.674Z,99.82
2023-04-16T05:12:35.742Z,99.72
2023-04-16T05:13:35.833Z,99.72
2023-04-16T05:14:35.905Z,99.72
2023-04-16T05:15:36.004Z,99.72
2023-04-16T05:16:36.080Z,99.62
2023-04-16T05:17:36.202Z,99.62
2023-04-16T05:18:36.214Z,99.51
2023-04-16T05:19:36.296Z,99.21
2023-04-16T05:20:36.407Z,99.31
2023-04-16T05:21:36.467Z,99.31
2023-04-16T05:22:36.552Z,99.31
2023-04-16T05:23:36.638Z,99.31
2023-04-16T05:24:36.699Z,99.51
2023-04-16T05:25:36.798Z,99.62
2023-04-16T05:26:36.874Z,99.72
2023-04-16T05:27:36.983Z,99.62
2023-04-16T05:28:37.039Z,99.62
2023-04-16T05:29:37.108Z,99.62
2023-04-16T05:30:37.245Z,99.51
2023-04-16T05:31:37.265Z,99.51
2023-04-16T05:32:37.354Z,99.62
2023-04-16T05:33:37.418Z,99.62
2023-04-16T05:34:37.499Z,99.62
2023-04-16T05:35:37.596Z,99.51
2023-04-16T05:36:37.633Z,99.51
2023-04-16T05:37:37.724Z,99.31
2023-04-16T05:38:37.782Z,99.31
2023-04-16T05:39:37.863Z,99.41
2023-04-16T05:40:37.953Z,99.51
2023-04-16T05:41:38.035Z,99.41
2023-04-16T05:42:38.105Z,99.51
2023-04-16T05:43:38.201Z,99.51
2023-04-16T05:44:38.239Z,99.51
2023-04-16T05:45:38.335Z,99.62
2023-04-16T05:46:38.501Z,99.72
2023-04-16T05:47:38.520Z,99.82
2023-04-16T05:48:38.552Z,99.93
2023-04-16T05:49:38.632Z,99.93
2023-04-16T05:50:38.750Z,99.93
2023-04-16T05:51:38.786Z,99.93
2023-04-16T05:52:38.869Z,99.99
2023-04-16T05:53:38.942Z,99.93
2023-04-16T05:54:39.008Z,99.93
2023-04-16T05:55:39.136Z,99.93
2023-04-16T05:56:39.148Z,99.99
2023-04-16T05:57:39.256Z,99.99
2023-04-16T05:58:39.326Z,99.93
2023-04-16T05:59:39.415Z,99.82
2023-04-16T06:00:39.504Z,99.93
2023-04-16T06:01:39.595Z,99.99
2023-04-16T06:02:39.823Z,99.99
2023-04-16T06:03:39.832Z,99.93
2023-04-16T06:04:39.853Z,99.93
2023-04-16T06:05:40.011Z,99.99
2023-04-16T06:06:39.972Z,99.99
2023-04-16T06:07:40.064Z,99.99
2023-04-16T06:08:40.128Z,99.99
2023-04-16T06:09:40.210Z,99.99
2023-04-16T06:10:40.302Z,99.99
2023-04-16T06:11:40.358Z,99.99
2023-04-16T06:12:40.429Z,99.99
2023-04-16T06:13:40.510Z,99.99
2023-04-16T06:14:40.568Z,99.99
2023-04-16T06:15:40.717Z,99.99
2023-04-16T06:16:40.708Z,99.99
2023-04-16T06:17:40.810Z,99.99
2023-04-16T06:18:40.859Z,99.99
2023-04-16T06:19:40.940Z,99.99
2023-04-16T06:20:41.058Z,99.99
2023-04-16T06:21:41.126Z,99.99
2023-04-16T06:22:41.192Z,99.99
2023-04-16T06:23:41.296Z,99.99
2023-04-16T06:24:41.367Z,99.99
2023-04-16T06:25:41.459Z,99.99
2023-04-16T06:26:41.527Z,99.99
2023-04-16T06:27:41.599Z,99.99
2023-04-16T06:28:41.657Z,99.99
2023-04-16T06:29:42.033Z,99.99
2023-04-16T06:30:43.985Z,99.99
2023-04-16T06:31:41.921Z,99.99
2023-04-16T06:32:42.006Z,99.99
2023-04-16T06:33:42.072Z,99.99
2023-04-16T06:34:42.143Z,99.99
2023-04-16T06:35:42.221Z,99.99
2023-04-16T06:36:42.261Z,99.99
2023-04-16T06:37:42.363Z,99.99
2023-04-16T06:38:42.449Z,99.99
2023-04-16T06:39:42.529Z,99.99
2023-04-16T06:40:42.622Z,99.99
2023-04-16T06:41:42.689Z,99.99
2023-04-16T06:42:45.315Z,99.99
2023-04-16T06:43:42.851Z,99.99
2023-04-16T06:44:42.913Z,99.99
2023-04-16T06:45:43.014Z,99.99
2023-04-16T06:46:43.098Z,99.99
2023-04-16T06:47:43.189Z,99.99
2023-04-16T06:48:43.270Z,99.99
2023-04-16T06:49:43.348Z,99.99
2023-04-16T06:50:43.412Z,99.99
2023-04-16T06:51:43.472Z,99.99
2023-04-16T06:52:43.538Z,99.99
2023-04-16T06:53:43.621Z,99.99
2023-04-16T06:54:43.675Z,99.99
2023-04-16T06:55:43.792Z,99.99
2023-04-16T06:56:43.851Z,99.99
2023-04-16T06:57:43.935Z,99.99
2023-04-16T06:58:43.991Z,99.99
2023-04-16T06:59:44.069Z,99.99
2023-04-16T07:00:44.234Z,99.99
2023-04-16T07:01:44.291Z,99.99
2023-04-16T07:02:44.405Z,99.99
2023-04-16T07:03:44.496Z,99.99
2023-04-16T07:04:44.441Z,99.99
2023-04-16T07:05:44.546Z,99.99
2023-04-16T07:06:44.602Z,99.99
2023-04-16T07:07:44.683Z,99.99
2023-04-16T07:08:44.765Z,99.99
2023-04-16T07:09:44.857Z,99.99
2023-04-16T07:10:44.951Z,99.99
2023-04-16T07:11:45.026Z,99.99
2023-04-16T07:12:45.107Z,99.99
2023-04-16T07:13:45.186Z,99.99
2023-04-16T07:14:45.245Z,99.99
2023-04-16T07:15:45.369Z,99.99
2023-04-16T07:16:45.420Z,99.99
2023-04-16T07:17:45.521Z,99.99
2023-04-16T07:18:45.602Z,99.99
2023-04-16T07:19:45.657Z,99.99
2023-04-16T07:20:45.733Z,99.99
2023-04-16T07:21:45.807Z,99.99
2023-04-16T07:22:45.877Z,99.99
2023-04-16T07:23:45.956Z,99.99
2023-04-16T07:24:46.007Z,99.99
2023-04-16T07:25:46.133Z,99.99
2023-04-16T07:26:46.170Z,99.99
2023-04-16T07:27:46.245Z,99.99
2023-04-16T07:28:46.305Z,99.99
2023-04-16T07:29:46.380Z,99.99
2023-04-16T07:30:46.498Z,99.99
2023-04-16T07:31:46.579Z,99.99
2023-04-16T07:32:46.677Z,99.99
2023-04-16T07:33:46.714Z,99.99
2023-04-16T07:34:46.802Z,99.99
2023-04-16T07:35:46.886Z,99.99
2023-04-16T07:36:46.975Z,99.99
2023-04-16T07:37:47.021Z,99.99
2023-04-16T07:38:47.091Z,99.99
2023-04-16T07:39:47.192Z,99.99
2023-04-16T07:40:47.274Z,99.99
2023-04-16T07:41:47.340Z,99.99
2023-04-16T07:42:47.401Z,99.99
2023-04-16T07:43:47.476Z,99.99
2023-04-16T07:44:47.556Z,99.99
2023-04-16T07:45:47.700Z,99.99
2023-04-16T07:46:47.931Z,99.99
2023-04-16T07:47:47.910Z,99.99
2023-04-16T07:48:47.915Z,99.99
2023-04-16T07:49:47.969Z,99.99
2023-04-16T07:50:48.069Z,99.99
2023-04-16T07:51:48.146Z,99.99
2023-04-16T07:52:48.208Z,99.99
2023-04-16T07:53:48.270Z,99.99
2023-04-16T07:54:48.360Z,99.99
2023-04-16T07:55:48.440Z,99.99
2023-04-16T07:56:48.501Z,99.99
2023-04-16T07:57:48.561Z,99.99
2023-04-16T07:58:48.675Z,99.99
2023-04-16T07:59:48.745Z,99.99
2023-04-16T08:00:50.785Z,99.99
2023-04-16T08:01:48.953Z,99.99
2023-04-16T08:02:49.210Z,99.99
2023-04-16T08:03:49.311Z,99.99
2023-04-16T08:04:49.380Z,99.99
2023-04-16T08:05:49.314Z,99.99
2023-04-16T08:06:49.387Z,99.99
2023-04-16T08:07:49.463Z,99.99
2023-04-16T08:08:49.545Z,99.99
2023-04-16T08:09:49.605Z,99.99
2023-04-16T08:10:49.708Z,99.99
2023-04-16T08:11:49.852Z,99.99
2023-04-16T08:12:49.813Z,99.99
2023-04-16T08:13:49.877Z,99.99
2023-04-16T08:14:49.949Z,99.99
2023-04-16T08:15:50.081Z,99.99
2023-04-16T08:16:50.138Z,99.99
2023-04-16T08:17:50.327Z,99.99
2023-04-16T08:18:50.303Z,99.99
2023-04-16T08:19:50.358Z,99.99
2023-04-16T08:20:50.457Z,99.99
2023-04-16T08:21:50.524Z,99.99
2023-04-16T08:22:50.608Z,99.99
2023-04-16T08:23:50.687Z,99.99
2023-04-16T08:24:50.791Z,99.99
2023-04-16T08:25:51.839Z,99.99
2023-04-16T08:26:50.957Z,99.99
2023-04-16T08:27:51.050Z,99.99
2023-04-16T08:28:51.131Z,99.99
2023-04-16T08:29:51.179Z,99.99
2023-04-16T08:30:51.315Z,99.99
2023-04-16T08:31:51.450Z,99.99
2023-04-16T08:32:51.475Z,99.99
2023-04-16T08:33:51.502Z,99.99
2023-04-16T08:34:51.619Z,99.99
2023-04-16T08:35:51.705Z,99.99
2023-04-16T08:36:51.767Z,99.99
2023-04-16T08:37:51.844Z,99.99
2023-04-16T08:38:51.918Z,99.99
2023-04-16T08:39:51.972Z,99.99
2023-04-16T08:40:52.095Z,99.99
2023-04-16T08:41:52.155Z,99.99
2023-04-16T08:42:52.258Z,99.99
2023-04-16T08:43:52.316Z,99.99
2023-04-16T08:44:52.421Z,99.99
2023-04-16T08:45:52.502Z,99.99
2023-04-16T08:46:52.602Z,99.99
2023-04-16T08:47:52.727Z,99.84
2023-04-16T08:48:52.715Z,99.95
2023-04-16T08:49:52.768Z,99.95
2023-04-16T08:50:52.861Z,99.95
2023-04-16T08:51:52.916Z,99.95
2023-04-16T08:52:53.008Z,99.84
2023-04-16T08:53:53.089Z,99.74
2023-04-16T08:54:56.705Z,99.54
2023-04-16T08:55:53.298Z,99.43
2023-04-16T08:56:53.422Z,99.22
2023-04-16T08:57:53.434Z,99.22
2023-04-16T08:58:53.518Z,99.43
2023-04-16T08:59:53.572Z,99.33
2023-04-16T09:00:53.683Z,99.43
2023-04-16T09:01:53.797Z,99.43
2023-04-16T09:02:53.938Z,99.33
2023-04-16T09:03:54.035Z,99.33
2023-04-16T09:04:54.075Z,99.33
2023-04-16T09:05:54.073Z,99.43
2023-04-16T09:06:54.150Z,99.43
2023-04-16T09:07:54.215Z,99.43
2023-04-16T09:08:54.292Z,99.43
2023-04-16T09:09:54.359Z,99.33
2023-04-16T09:10:54.463Z,99.43
2023-04-16T09:11:54.524Z,99.33
2023-04-16T09:12:54.600Z,99.12
2023-04-16T09:13:54.673Z,99.02
2023-04-16T09:14:54.749Z,99.12
2023-04-16T09:15:54.957Z,99.12
2023-04-16T09:16:54.901Z,99.02
2023-04-16T09:17:55.014Z,98.92
2023-04-16T09:18:55.074Z,98.82
2023-04-16T09:19:55.166Z,98.82
2023-04-16T09:20:55.259Z,98.51
2023-04-16T09:21:55.302Z,98.30
2023-04-16T09:22:55.398Z,97.99
2023-04-16T09:23:55.461Z,97.85
2023-04-16T09:24:55.540Z,97.79
2023-04-16T09:25:55.684Z,97.44
2023-04-16T09:26:55.721Z,97.44
2023-04-16T09:27:55.777Z,97.23
2023-04-16T09:28:55.857Z,97.23
2023-04-16T09:29:55.945Z,97.23
2023-04-16T09:30:56.033Z,97.23
2023-04-16T09:31:56.129Z,97.23
2023-04-16T09:32:56.183Z,97.08
2023-04-16T09:33:56.242Z,96.57
2023-04-16T09:34:56.331Z,96.78
2023-04-16T09:35:56.479Z,96.67
2023-04-16T09:36:56.478Z,96.47
2023-04-16T09:37:56.518Z,96.26
2023-04-16T09:38:57.682Z,96.16
2023-04-16T09:39:56.676Z,96.12
2023-04-16T09:40:56.918Z,96.22
2023-04-16T09:41:56.817Z,96.06
2023-04-16T09:42:56.934Z,95.75
2023-04-16T09:43:56.955Z,95.50
2023-04-16T09:44:59.896Z,95.70
2023-04-16T09:45:57.161Z,95.81
2023-04-16T09:46:57.201Z,95.61
2023-04-16T09:47:57.290Z,95.29
2023-04-16T09:48:57.345Z,95.20
2023-04-16T09:49:57.394Z,95.29
2023-04-16T09:50:57.509Z,95.14
2023-04-16T09:51:57.580Z,94.99
2023-04-16T09:52:57.652Z,95.20
2023-04-16T09:53:57.733Z,95.09
2023-04-16T09:54:57.830Z,95.09
2023-04-16T09:55:57.946Z,95.09
2023-04-16T09:56:58.008Z,94.89
2023-04-16T09:57:58.085Z,94.89
2023-04-16T09:58:58.182Z,94.99
2023-04-16T09:59:58.293Z,95.09
2023-04-16T10:00:58.398Z,95.09
2023-04-16T10:02:14.925Z,94.89
2023-04-16T10:02:58.637Z,94.64
2023-04-16T10:03:58.644Z,94.54
2023-04-16T10:04:58.738Z,94.43
2023-04-16T10:05:58.794Z,94.54
2023-04-16T10:06:58.859Z,94.64
2023-04-16T10:07:58.905Z,94.43
2023-04-16T10:08:58.997Z,94.12
2023-04-16T10:09:59.069Z,94.02
2023-04-16T10:10:59.184Z,93.77
2023-04-16T10:11:59.228Z,94.08
2023-04-16T10:12:59.326Z,94.29
2023-04-16T10:13:59.391Z,94.18
2023-04-16T10:14:59.495Z,94.29
2023-04-16T10:15:59.571Z,94.29
2023-04-16T10:16:59.688Z,93.63
2023-04-16T10:17:59.749Z,93.63
2023-04-16T10:18:59.796Z,93.07
2023-04-16T10:19:59.865Z,93.44
2023-04-16T10:20:59.994Z,92.78
2023-04-16T10:22:00.055Z,91.86
2023-04-16T10:23:00.144Z,91.56
2023-04-16T10:24:00.226Z,90.74
2023-04-16T10:25:00.291Z,90.64
2023-04-16T10:26:00.387Z,90.12
2023-04-16T10:27:00.464Z,89.92
2023-04-16T10:28:00.528Z,89.72
2023-04-16T10:29:00.606Z,89.92
2023-04-16T10:30:00.688Z,89.98
2023-04-16T10:31:00.795Z,89.51
2023-04-16T10:32:00.818Z,89.41
2023-04-16T10:33:00.982Z,89.72
2023-04-16T10:34:00.947Z,90.19
2023-04-16T10:35:01.079Z,89.98
2023-04-16T10:36:07.056Z,89.67
2023-04-16T10:37:01.209Z,89.17
2023-04-16T10:38:01.280Z,89.20
2023-04-16T10:39:01.410Z,89.31
2023-04-16T10:40:01.474Z,88.90
2023-04-16T10:41:01.583Z,88.90
2023-04-16T10:42:01.677Z,89.00
2023-04-16T10:43:01.779Z,89.51
2023-04-16T10:44:01.845Z,89.04
2023-04-16T10:45:01.945Z,88.70
2023-04-16T10:46:02.053Z,88.90
2023-04-16T10:47:02.181Z,89.11
2023-04-16T10:48:02.172Z,89.00
2023-04-16T10:49:02.285Z,89.41
2023-04-16T10:50:02.330Z,89.61
2023-04-16T10:51:02.474Z,89.56
2023-04-16T10:52:02.580Z,89.45
2023-04-16T10:53:02.597Z,89.56
2023-04-16T10:54:02.679Z,89.45
2023-04-16T10:55:02.784Z,89.65
2023-04-16T10:56:02.883Z,89.97
2023-04-16T10:57:04.249Z,89.65
2023-04-16T10:58:03.053Z,89.56
2023-04-16T10:59:03.147Z,89.65
2023-04-16T11:00:03.221Z,89.72
2023-04-16T11:01:03.298Z,90.12
2023-04-16T11:02:03.429Z,90.08
2023-04-16T11:03:03.557Z,90.08
2023-04-16T11:04:03.659Z,89.23
2023-04-16T11:05:03.752Z,88.55
2023-04-16T11:06:03.675Z,88.51
2023-04-16T11:07:03.720Z,88.24
2023-04-16T11:08:03.793Z,88.55
2023-04-16T11:09:03.879Z,88.92
2023-04-16T11:10:03.929Z,88.61
2023-04-16T11:11:04.059Z,88.61
2023-04-16T11:12:04.102Z,88.41
2023-04-16T11:13:04.198Z,88.37
2023-04-16T11:14:04.257Z,88.06
2023-04-16T11:15:04.353Z,87.65
2023-04-16T11:16:04.466Z,87.65
2023-04-16T11:17:04.504Z,87.76
2023-04-16T11:18:04.637Z,87.55
2023-04-16T11:19:04.711Z,87.29
2023-04-16T11:20:04.741Z,87.79
2023-04-16T11:21:04.863Z,88.31
2023-04-16T11:22:04.907Z,87.94
2023-04-16T11:23:05.001Z,87.43
2023-04-16T11:24:05.086Z,87.43
2023-04-16T11:25:05.180Z,87.32
2023-04-16T11:26:05.277Z,87.53
2023-04-16T11:27:05.353Z,87.84
2023-04-16T11:28:05.406Z,88.24
2023-04-16T11:29:05.524Z,88.55
2023-04-16T11:30:05.602Z,88.85
2023-04-16T11:31:05.709Z,89.06
2023-04-16T11:32:05.757Z,89.06
2023-04-16T11:33:05.843Z,88.65
2023-04-16T11:34:05.890Z,88.45
2023-04-16T11:35:05.976Z,88.55
2023-04-16T11:36:06.081Z,88.76
2023-04-16T11:37:06.154Z,88.90
2023-04-16T11:38:06.217Z,88.59
2023-04-16T11:39:06.323Z,88.79
2023-04-16T11:40:06.348Z,88.59
2023-04-16T11:41:06.450Z,88.79
2023-04-16T11:42:06.570Z,88.70
2023-04-16T11:43:06.616Z,88.45
2023-04-16T11:44:06.697Z,88.24
2023-04-16T11:45:06.777Z,87.63
2023-04-16T11:46:20.086Z,87.63
2023-04-16T11:47:07.013Z,87.23
2023-04-16T11:48:09.882Z,87.12
2023-04-16T11:49:07.120Z,87.12
2023-04-16T11:50:07.198Z,87.23
2023-04-16T11:51:07.292Z,86.61
2023-04-16T11:52:07.369Z,85.89
2023-04-16T11:53:07.461Z,86.20
2023-04-16T11:54:09.131Z,86.91
2023-04-16T11:55:07.705Z,87.63
2023-04-16T11:56:07.700Z,88.20
2023-04-16T11:57:07.751Z,88.20
2023-04-16T11:58:07.833Z,88.41
2023-04-16T11:59:08.251Z,88.20
2023-04-16T12:00:10.008Z,88.31
2023-04-16T12:01:08.074Z,88.17
2023-04-16T12:02:08.250Z,87.85
2023-04-16T12:03:08.381Z,88.02
2023-04-16T12:04:08.868Z,87.71
2023-04-16T12:05:08.386Z,86.69
2023-04-16T12:06:08.466Z,86.29
2023-04-16T12:07:08.548Z,85.98
2023-04-16T12:08:08.617Z,85.06
2023-04-16T12:09:08.928Z,85.47
2023-04-16T12:10:08.800Z,85.57
2023-04-16T12:11:08.910Z,85.53
2023-04-16T12:12:08.983Z,85.02
2023-04-16T12:13:09.079Z,84.96
2023-04-16T12:14:09.149Z,85.27
2023-04-16T12:15:09.226Z,85.43
2023-04-16T12:16:09.396Z,85.16
2023-04-16T12:17:09.479Z,85.68
2023-04-16T12:18:09.625Z,85.57
2023-04-16T12:19:09.868Z,85.82
2023-04-16T12:20:09.680Z,86.02
2023-04-16T12:21:09.775Z,85.92
2023-04-16T12:22:09.830Z,85.71
2023-04-16T12:23:09.912Z,85.82
2023-04-16T12:24:10.010Z,85.96
2023-04-16T12:25:10.099Z,85.75
2023-04-16T12:26:10.567Z,85.65
2023-04-16T12:27:10.293Z,85.65
2023-04-16T12:28:10.356Z,86.16
2023-04-16T12:29:10.519Z,86.57
2023-04-16T12:30:10.480Z,86.67
2023-04-16T12:31:10.621Z,86.63
2023-04-16T12:32:10.642Z,86.22
2023-04-16T12:33:10.750Z,86.06
2023-04-16T12:34:10.799Z,86.02
2023-04-16T12:35:10.890Z,86.12
2023-04-16T12:36:10.958Z,86.02
2023-04-16T12:37:11.020Z,86.06
2023-04-16T12:38:11.086Z,86.26
2023-04-16T12:39:11.425Z,86.53
2023-04-16T12:40:11.358Z,86.53
2023-04-16T12:41:11.339Z,86.02
2023-04-16T12:42:11.500Z,85.82
2023-04-16T12:43:11.484Z,85.77
2023-04-16T12:44:11.563Z,85.37
2023-04-16T12:45:11.630Z,84.75
2023-04-16T12:46:11.958Z,84.75
2023-04-16T12:47:11.796Z,84.20
2023-04-16T12:48:11.891Z,84.14
2023-04-16T12:49:12.129Z,84.34
2023-04-16T12:50:12.025Z,84.55
2023-04-16T12:51:12.103Z,84.86
2023-04-16T12:52:12.167Z,84.86
2023-04-16T12:53:12.267Z,84.86